Time;durP1;ratioP1;P1;durP2;ratioP2;P2;SDS_P1;SDS_P2;PMS_P1;PMS_P2;Temp;Humidity;BMP_temperature;BMP_pressure;BME280_temperature;BME280_humidity;BME280_pressure;Samples;Min_cycle;Max_cycle;Signal;HPM_P1;HPM_P2
2023/03/17 00:00:18;;;;;;;0.80;0.80;;;;;;;5.55;64.10;97137.75;4903752;29;20761;-76
2023/03/17 00:02:48;;;;;;;1.20;1.10;;;;;;;5.70;64.03;97139.97;4905221;29;20681;-83
2023/03/17 00:05:17;;;;;;;1.37;1.20;;;;;;;5.73;63.80;97127.00;4903907;29;20289;-79
2023/03/17 00:07:45;;;;;;;1.20;1.10;;;;;;;5.78;62.20;97141.44;4902888;29;20197;-81
2023/03/17 00:10:14;;;;;;;1.77;1.40;;;;;;;5.75;63.74;97130.38;4885830;29;20202;-80
2023/03/17 00:12:41;;;;;;;1.90;1.50;;;;;;;5.57;63.98;97136.00;4904208;29;20200;-78
2023/03/17 00:15:09;;;;;;;1.60;1.50;;;;;;;5.33;64.40;97132.31;4888210;29;20312;-78
2023/03/17 00:17:36;;;;;;;2.13;1.80;;;;;;;5.27;65.01;97129.03;4903042;29;20529;-75
2023/03/17 00:20:05;;;;;;;2.67;1.60;;;;;;;5.20;65.40;97122.34;4898577;29;20207;-79
2023/03/17 00:22:32;;;;;;;1.97;1.60;;;;;;;5.18;65.47;97131.81;4905532;29;20252;-80
2023/03/17 00:24:59;;;;;;;2.53;1.70;;;;;;;5.17;65.42;97127.56;4883227;29;20283;-80
2023/03/17 00:27:27;;;;;;;3.30;2.00;;;;;;;5.37;64.20;97133.91;4898821;29;20233;-74
2023/03/17 00:29:53;;;;;;;2.27;1.70;;;;;;;5.50;64.12;97139.59;4891525;29;20208;-81
2023/03/17 00:32:21;;;;;;;2.33;1.60;;;;;;;5.56;63.63;97122.28;4903646;29;20616;-81
2023/03/17 00:34:50;;;;;;;2.00;1.80;;;;;;;5.69;63.97;97130.53;4897667;29;20231;-80
2023/03/17 00:37:18;;;;;;;2.23;2.03;;;;;;;5.33;64.91;97139.16;4895604;29;20230;-82
2023/03/17 00:39:45;;;;;;;2.00;1.70;;;;;;;5.38;64.61;97124.50;4898732;29;20235;-79
2023/03/17 00:42:12;;;;;;;2.27;1.80;;;;;;;5.49;63.76;97132.78;4899565;29;20297;-76
2023/03/17 00:44:40;;;;;;;1.80;1.60;;;;;;;5.45;63.85;97120.88;4901149;29;20199;-78
2023/03/17 00:47:09;;;;;;;2.47;1.97;;;;;;;5.48;63.06;97137.06;4884025;29;20200;-72
2023/03/17 00:49:36;;;;;;;2.37;2.07;;;;;;;5.55;63.31;97119.78;4894562;29;20196;-74
2023/03/17 00:52:03;;;;;;;2.03;1.73;;;;;;;5.46;62.07;97114.88;4894809;29;20208;-76
2023/03/17 00:54:30;;;;;;;1.67;1.57;;;;;;;5.48;62.48;97125.97;4876579;29;20240;-78
2023/03/17 00:56:58;;;;;;;2.77;1.77;;;;;;;5.37;62.93;97133.06;4894472;29;20210;-74
2023/03/17 00:59:29;;;;;;;2.27;2.07;;;;;;;5.31;63.04;97130.66;4895103;29;20657;-74
2023/03/17 01:01:56;;;;;;;3.07;2.20;;;;;;;5.29;64.01;97143.53;4899756;29;20196;-76
2023/03/17 01:04:24;;;;;;;2.67;1.93;;;;;;;5.31;63.64;97130.66;4899616;29;20202;-73
2023/03/17 01:06:51;;;;;;;3.50;2.27;;;;;;;5.37;62.90;97128.78;4880256;29;20756;-77
2023/03/17 01:09:22;;;;;;;2.90;2.30;;;;;;;5.50;61.68;97144.75;4878899;29;20196;-73
2023/03/17 01:11:49;;;;;;;1.97;1.87;;;;;;;5.71;60.94;97131.34;4876349;29;20192;-79
2023/03/17 01:14:16;;;;;;;2.33;1.90;;;;;;;5.66;61.14;97158.91;4858385;29;21137;-77
2023/03/17 01:16:43;;;;;;;2.37;1.90;;;;;;;5.53;61.60;97127.53;4875037;29;20274;-75
2023/03/17 01:19:12;;;;;;;2.27;2.03;;;;;;;5.61;59.93;97132.47;4880662;29;20197;-76
2023/03/17 01:21:40;;;;;;;2.60;1.80;;;;;;;5.65;60.34;97136.63;4885651;29;20220;-76
2023/03/17 01:24:08;;;;;;;1.83;1.63;;;;;;;5.59;60.88;97122.22;4880212;29;20275;-83
2023/03/17 01:26:35;;;;;;;1.87;1.63;;;;;;;5.62;60.75;97137.59;4875999;29;20651;-79
2023/03/17 01:29:03;;;;;;;2.43;1.90;;;;;;;5.53;60.82;97136.94;4874550;29;20221;-81
2023/03/17 01:31:30;;;;;;;1.77;1.60;;;;;;;5.57;61.37;97125.72;4875562;29;20269;-82
2023/03/17 01:33:57;;;;;;;2.10;1.80;;;;;;;5.68;60.07;97136.59;4875085;29;20257;-84
2023/03/17 01:36:25;;;;;;;2.33;1.87;;;;;;;5.79;59.77;97127.72;4874465;29;20281;-84
2023/03/17 01:38:52;;;;;;;3.40;1.70;;;;;;;5.85;59.43;97137.03;4875793;29;20711;-81
2023/03/17 01:41:19;;;;;;;1.87;1.47;;;;;;;6.02;60.04;97141.75;4875665;29;20191;-77
2023/03/17 01:43:46;;;;;;;3.47;1.90;;;;;;;6.13;59.28;97139.72;4875324;29;20198;-85
2023/03/17 01:46:24;;;;;;;3.10;1.90;;;;;;;6.16;60.60;97148.19;4873114;29;20206;-84
2023/03/17 01:49:13;;;;;;;3.30;2.00;;;;;;;6.19;59.93;97153.25;4877896;29;20649;-83
2023/03/17 01:51:57;;;;;;;3.07;2.10;;;;;;;6.14;59.82;97149.13;4874155;29;20199;-80
2023/03/17 01:54:49;;;;;;;3.37;1.97;;;;;;;6.04;60.36;97142.53;4874777;29;20279;-80
2023/03/17 01:57:28;;;;;;;2.10;1.60;;;;;;;6.05;61.20;97149.34;4875320;29;20226;-79
2023/03/17 01:59:57;;;;;;;2.67;1.60;;;;;;;6.15;60.35;97154.22;4872708;29;20239;-81
2023/03/17 02:02:33;;;;;;;3.63;2.00;;;;;;;6.15;60.65;97150.78;4877548;29;20192;-84
2023/03/17 02:05:02;;;;;;;2.60;1.80;;;;;;;6.05;60.79;97160.50;4878321;29;20205;-80
2023/03/17 02:07:30;;;;;;;3.00;2.20;;;;;;;6.02;61.27;97150.28;4879710;29;20664;-82
2023/03/17 02:09:57;;;;;;;2.90;2.00;;;;;;;6.07;60.64;97163.88;4884278;29;20270;-78
2023/03/17 02:12:27;;;;;;;2.10;1.70;;;;;;;6.11;60.26;97180.03;4880757;29;20298;-78
2023/03/17 02:14:56;;;;;;;3.40;2.20;;;;;;;6.00;59.24;97167.47;4856585;29;20234;-77
2023/03/17 02:17:43;;;;;;;2.10;1.70;;;;;;;6.16;59.52;97198.78;4842334;29;20278;-80
2023/03/17 02:20:16;;;;;;;2.63;1.90;;;;;;;5.70;58.91;97201.59;4855675;29;20206;-78
2023/03/17 02:22:46;;;;;;;1.70;1.50;;;;;;;5.65;58.26;97198.28;4856138;29;20232;-80
2023/03/17 02:25:14;;;;;;;1.93;1.43;;;;;;;5.67;58.61;97196.53;4855572;29;20207;-79
2023/03/17 02:27:45;;;;;;;2.20;1.70;;;;;;;5.74;58.56;97162.13;4854933;29;20219;-76
2023/03/17 02:30:18;;;;;;;1.67;1.57;;;;;;;5.81;59.19;97175.66;4854552;29;20200;-73
2023/03/17 02:32:46;;;;;;;2.43;1.63;;;;;;;5.73;59.18;97181.81;4856498;29;20234;-77
2023/03/17 02:35:14;;;;;;;1.83;1.60;;;;;;;5.46;61.48;97174.78;4859096;29;20230;-78
2023/03/17 02:37:42;;;;;;;2.00;1.50;;;;;;;5.37;60.72;97192.13;4865846;29;20211;-79
2023/03/17 02:40:10;;;;;;;2.40;1.80;;;;;;;5.46;59.96;97203.03;4866283;29;20254;-77
2023/03/17 02:42:38;;;;;;;2.00;1.60;;;;;;;5.51;60.92;97208.91;4856115;29;20189;-81
2023/03/17 02:45:07;;;;;;;2.10;1.90;;;;;;;5.55;60.99;97199.41;4855782;29;20198;-82
2023/03/17 02:47:35;;;;;;;1.77;1.47;;;;;;;5.52;57.24;97230.31;4854374;29;20275;-81
2023/03/17 02:50:03;;;;;;;2.00;1.60;;;;;;;5.47;57.36;97188.47;4856165;29;20284;-77
2023/03/17 02:52:30;;;;;;;2.50;1.67;;;;;;;5.55;56.88;97217.38;4857766;29;20202;-82
2023/03/17 02:54:57;;;;;;;1.50;1.40;;;;;;;5.65;56.74;97204.28;4859214;29;20229;-78
2023/03/17 02:57:25;;;;;;;1.40;1.30;;;;;;;5.72;56.90;97207.56;4857642;29;20254;-79
2023/03/17 02:59:52;;;;;;;2.50;1.83;;;;;;;5.57;56.59;97225.88;4859769;29;20249;-82
2023/03/17 03:02:19;;;;;;;1.97;1.50;;;;;;;5.37;57.04;97205.81;4860510;29;20701;-84
2023/03/17 03:04:46;;;;;;;2.50;1.30;;;;;;;5.51;56.75;97218.31;4853486;29;20296;-79
2023/03/17 03:07:13;;;;;;;1.50;1.40;;;;;;;5.36;57.51;97218.66;4855174;29;20199;-75
2023/03/17 03:09:40;;;;;;;2.00;1.50;;;;;;;5.27;57.49;97188.09;4855539;29;20193;-77
2023/03/17 03:12:08;;;;;;;1.33;1.23;;;;;;;5.28;57.46;97254.78;4857165;29;20618;-78
2023/03/17 03:14:36;;;;;;;1.93;1.73;;;;;;;5.31;57.07;97197.41;4889256;29;20273;-75
2023/03/17 03:17:03;;;;;;;1.90;1.70;;;;;;;5.58;55.95;97202.75;4874629;29;20237;-72
2023/03/17 03:19:30;;;;;;;1.80;1.50;;;;;;;5.78;55.48;97204.84;4892446;29;20204;-73
2023/03/17 03:21:57;;;;;;;1.83;1.57;;;;;;;5.82;55.86;97214.16;4892018;29;20197;-78
2023/03/17 03:24:24;;;;;;;1.90;1.70;;;;;;;5.76;55.95;97234.84;4892368;29;20205;-84
2023/03/17 03:26:51;;;;;;;1.97;1.40;;;;;;;5.84;55.56;97206.44;4893349;29;20290;-80
2023/03/17 03:29:17;;;;;;;1.53;1.33;;;;;;;5.87;55.60;97232.94;4898636;29;20299;-75
2023/03/17 03:31:46;;;;;;;1.73;1.53;;;;;;;5.57;55.80;97193.34;4906162;29;20214;-84
2023/03/17 03:34:15;;;;;;;2.83;1.60;;;;;;;5.62;56.31;97218.94;4891247;29;20197;-79
2023/03/17 03:36:42;;;;;;;2.33;1.63;;;;;;;5.72;56.34;97222.97;4892667;29;20208;-81
2023/03/17 03:39:09;;;;;;;1.93;1.47;;;;;;;5.71;55.14;97223.84;4892831;29;20697;-79
2023/03/17 03:41:40;;;;;;;2.00;1.40;;;;;;;5.79;55.63;97225.34;4877248;29;20245;-77
2023/03/17 03:44:07;;;;;;;1.53;1.40;;;;;;;5.88;55.90;97224.31;4893308;29;20755;-79
2023/03/17 03:46:34;;;;;;;2.80;1.70;;;;;;;5.80;55.21;97241.63;4895509;29;20244;-82
2023/03/17 03:49:01;;;;;;;3.30;1.47;;;;;;;5.69;55.44;97253.84;4897196;29;20244;-83
2023/03/17 03:51:28;;;;;;;1.50;1.30;;;;;;;5.74;55.09;97228.91;4898146;29;20550;-75
2023/03/17 03:53:55;;;;;;;1.67;1.10;;;;;;;5.62;54.90;97247.19;4902877;29;20219;-81
2023/03/17 03:56:21;;;;;;;1.40;1.30;;;;;;;5.41;55.05;97230.53;4898021;29;20326;-80
2023/03/17 03:58:50;;;;;;;1.60;1.50;;;;;;;5.56;54.33;97234.50;4900121;29;20229;-79
2023/03/17 04:01:17;;;;;;;1.57;1.47;;;;;;;5.37;55.07;97264.03;4903106;29;20232;-78
2023/03/17 04:03:46;;;;;;;4.30;1.20;;;;;;;5.38;54.89;97279.38;4897417;29;20229;-77
2023/03/17 04:06:13;;;;;;;2.03;1.27;;;;;;;5.22;55.83;97229.25;4896517;29;20201;-78
2023/03/17 04:08:40;;;;;;;1.60;1.43;;;;;;;5.39;55.31;97237.44;4905943;29;20193;-80
2023/03/17 04:11:07;;;;;;;1.33;1.10;;;;;;;5.53;55.76;97237.97;4909528;29;20204;-74
2023/03/17 04:13:34;;;;;;;1.67;1.57;;;;;;;5.60;55.21;97239.53;4908229;29;20689;-79
2023/03/17 04:16:02;;;;;;;3.00;1.30;;;;;;;5.59;55.35;97240.38;4904732;29;20270;-78
2023/03/17 04:18:30;;;;;;;3.17;1.57;;;;;;;5.67;54.97;97235.91;4916172;29;20594;-79
2023/03/17 04:20:57;;;;;;;1.73;1.50;;;;;;;5.70;54.05;97253.84;4918483;29;20194;-82
2023/03/17 04:23:24;;;;;;;2.37;1.43;;;;;;;5.59;54.62;97257.53;4902876;29;20209;-78
2023/03/17 04:25:52;;;;;;;3.00;1.50;;;;;;;5.52;54.59;97246.53;4921738;29;20248;-73
2023/03/17 04:28:21;;;;;;;1.90;1.33;;;;;;;5.68;54.73;97259.88;4925869;29;20201;-80
2023/03/17 04:30:48;;;;;;;3.73;1.73;;;;;;;5.41;54.09;97242.53;4908849;29;20995;-73
2023/03/17 04:33:15;;;;;;;1.70;1.60;;;;;;;5.37;54.97;97267.44;4901541;29;20204;-82
2023/03/17 04:35:42;;;;;;;1.97;1.63;;;;;;;5.20;55.06;97259.25;4903552;29;20291;-75
2023/03/17 04:38:12;;;;;;;1.80;1.40;;;;;;;5.20;55.31;97272.09;4901736;29;20503;-75
2023/03/17 04:40:38;;;;;;;2.47;1.80;;;;;;;5.16;55.88;97273.03;4894730;29;20211;-77
2023/03/17 04:43:06;;;;;;;4.17;1.70;;;;;;;5.17;55.70;97263.59;4890545;29;20670;-84
2023/03/17 04:45:32;;;;;;;2.40;1.70;;;;;;;5.15;56.42;97286.75;4889782;29;20265;-77
2023/03/17 04:48:00;;;;;;;1.90;1.50;;;;;;;5.11;55.69;97279.97;4896853;29;20205;-78
2023/03/17 04:50:27;;;;;;;2.30;1.63;;;;;;;5.20;55.65;97284.06;4895771;29;20217;-73
2023/03/17 04:52:55;;;;;;;1.60;1.50;;;;;;;5.09;55.83;97299.69;4899994;29;20196;-74
2023/03/17 04:55:22;;;;;;;2.13;1.70;;;;;;;5.08;56.21;97294.59;4897988;29;20244;-72
2023/03/17 04:57:49;;;;;;;2.00;1.80;;;;;;;5.06;55.84;97270.69;4896355;29;20196;-76
2023/03/17 05:00:17;;;;;;;2.20;1.80;;;;;;;5.06;56.91;97283.50;4900220;29;20196;-75
2023/03/17 05:02:43;;;;;;;2.03;1.70;;;;;;;4.97;56.72;97279.41;4902336;29;20284;-75
2023/03/17 05:05:11;;;;;;;1.90;1.63;;;;;;;5.08;56.16;97304.84;4897197;29;20672;-73
2023/03/17 05:07:39;;;;;;;2.27;1.87;;;;;;;5.03;56.13;97286.16;4899314;29;20206;-78
2023/03/17 05:10:06;;;;;;;2.33;1.30;;;;;;;4.93;56.69;97296.59;4899582;29;20341;-80
2023/03/17 05:12:33;;;;;;;1.60;1.50;;;;;;;5.05;56.10;97315.19;4900125;29;20276;-77
2023/03/17 05:15:00;;;;;;;3.43;2.00;;;;;;;5.12;56.16;97296.22;4896132;29;20320;-81
2023/03/17 05:17:28;;;;;;;1.83;1.50;;;;;;;5.04;56.16;97305.78;4899969;29;20200;-77
2023/03/17 05:19:55;;;;;;;2.13;1.40;;;;;;;4.99;56.25;97328.16;4898132;29;20184;-79
2023/03/17 05:22:22;;;;;;;1.70;1.23;;;;;;;4.99;56.15;97343.53;4904317;29;20277;-78
2023/03/17 05:24:51;;;;;;;1.40;1.30;;;;;;;5.02;56.11;97335.78;4916920;29;20263;-76
2023/03/17 05:27:18;;;;;;;1.87;1.40;;;;;;;5.03;55.15;97316.94;4916396;29;20189;-74
2023/03/17 05:29:45;;;;;;;3.23;1.43;;;;;;;5.25;55.01;97338.75;4919601;29;20197;-78
2023/03/17 05:32:12;;;;;;;1.77;1.40;;;;;;;5.35;54.34;97337.66;4919883;29;20208;-72
2023/03/17 05:34:39;;;;;;;2.77;1.43;;;;;;;5.29;54.02;97305.28;4921890;29;20235;-73
2023/03/17 05:37:06;;;;;;;3.10;2.13;;;;;;;5.43;54.62;97328.09;4916424;29;20234;-75
2023/03/17 05:39:33;;;;;;;2.53;1.40;;;;;;;5.46;54.43;97338.31;4917803;29;20224;-79
2023/03/17 05:42:00;;;;;;;3.17;1.30;;;;;;;5.38;54.22;97341.00;4915088;29;20198;-79
2023/03/17 05:44:27;;;;;;;1.93;1.63;;;;;;;5.57;53.69;97352.59;4916305;29;20192;-84
2023/03/17 05:46:54;;;;;;;2.57;2.10;;;;;;;5.69;54.06;97369.47;4912050;29;20287;-78
2023/03/17 05:49:21;;;;;;;4.17;1.60;;;;;;;5.48;53.71;97331.41;4885510;29;20256;-82
2023/03/17 05:51:49;;;;;;;2.27;1.37;;;;;;;5.43;53.56;97328.09;4894168;29;20193;-78
2023/03/17 05:54:16;;;;;;;2.30;1.67;;;;;;;5.95;52.59;97354.38;4901720;29;20704;-85
2023/03/17 05:56:43;;;;;;;2.70;1.93;;;;;;;6.22;52.01;97363.19;4896783;29;20254;-84
2023/03/17 05:59:13;;;;;;;2.90;1.40;;;;;;;6.47;51.87;97367.69;4901608;29;20195;-80
2023/03/17 06:01:40;;;;;;;2.50;1.67;;;;;;;6.63;50.84;97364.75;4901668;29;20222;-85
2023/03/17 06:04:08;;;;;;;3.00;1.60;;;;;;;6.56;50.91;97380.31;4910135;29;20335;-77
2023/03/17 06:06:34;;;;;;;1.63;1.33;;;;;;;6.55;51.44;97386.34;4908478;29;20217;-81
2023/03/17 06:09:01;;;;;;;2.37;2.00;;;;;;;6.39;51.33;97372.16;4909812;29;20243;-75
2023/03/17 06:11:29;;;;;;;2.30;1.80;;;;;;;6.25;50.71;97335.66;4897927;29;20208;-86
2023/03/17 06:13:56;;;;;;;1.67;1.37;;;;;;;6.10;51.08;97372.00;4896756;29;20269;-82
2023/03/17 06:16:23;;;;;;;6.97;1.77;;;;;;;6.34;50.52;97374.03;4900390;29;20229;-74
2023/03/17 06:18:50;;;;;;;2.20;1.70;;;;;;;6.51;51.52;97379.59;4893412;29;20269;-82
2023/03/17 06:21:16;;;;;;;1.50;1.30;;;;;;;6.31;50.25;97386.94;4892806;29;20753;-84
2023/03/17 06:23:44;;;;;;;1.70;1.40;;;;;;;6.40;51.23;97391.88;4890788;29;20206;-82
2023/03/17 06:26:11;;;;;;;2.83;1.80;;;;;;;6.53;50.33;97395.81;4892852;29;20195;-83
2023/03/17 06:28:40;;;;;;;1.40;1.17;;;;;;;6.56;50.74;97394.91;4890403;29;20768;-80
2023/03/17 06:31:08;;;;;;;1.80;1.47;;;;;;;6.54;50.73;97378.66;4894598;29;20194;-77
2023/03/17 06:33:35;;;;;;;2.40;1.60;;;;;;;6.37;50.52;97409.94;4892793;29;20228;-82
2023/03/17 06:36:05;;;;;;;4.20;1.47;;;;;;;6.26;51.50;97411.94;4892306;29;20324;-84
2023/03/17 06:38:32;;;;;;;1.40;1.20;;;;;;;5.83;51.19;97387.19;4891135;29;20206;-78
2023/03/17 06:40:59;;;;;;;4.23;1.17;;;;;;;5.89;52.66;97405.06;4890284;29;20589;-80
2023/03/17 06:43:26;;;;;;;2.10;1.50;;;;;;;5.80;52.80;97406.06;4892246;29;20284;-84
2023/03/17 06:45:57;;;;;;;1.50;1.30;;;;;;;5.77;53.41;97419.81;4874181;29;20205;-84
2023/03/17 06:48:24;;;;;;;2.37;1.57;;;;;;;5.84;52.89;97425.72;4891675;29;20700;-83
2023/03/17 06:50:52;;;;;;;3.10;1.70;;;;;;;5.95;52.45;97421.19;4891775;29;20219;-84
2023/03/17 06:53:19;;;;;;;1.87;1.37;;;;;;;5.83;52.74;97421.44;4891658;29;20216;-77
2023/03/17 06:55:47;;;;;;;2.23;1.43;;;;;;;5.87;52.74;97407.66;4893668;29;20226;-74
2023/03/17 06:58:14;;;;;;;2.67;1.80;;;;;;;5.93;51.78;97422.97;4893731;29;20289;-76
2023/03/17 07:00:44;;;;;;;4.07;1.50;;;;;;;5.91;52.59;97455.56;4896551;29;20201;-81
2023/03/17 07:03:11;;;;;;;2.10;1.70;;;;;;;5.90;52.79;97437.56;4891545;29;20233;-82
2023/03/17 07:05:38;;;;;;;2.50;1.23;;;;;;;5.88;51.45;97435.03;4892113;29;20558;-77
2023/03/17 07:08:05;;;;;;;1.83;1.57;;;;;;;5.95;51.61;97410.91;4891399;29;20202;-80
2023/03/17 07:10:32;;;;;;;2.13;1.80;;;;;;;5.87;52.33;97425.66;4891735;29;20225;-83
2023/03/17 07:13:01;;;;;;;1.60;1.50;;;;;;;5.87;52.36;97428.22;4891619;29;20392;-82
2023/03/17 07:15:33;;;;;;;3.00;1.90;;;;;;;6.14;52.62;97426.78;4896172;29;20649;-82
2023/03/17 07:18:01;;;;;;;2.30;1.60;;;;;;;6.14;52.23;97432.75;4898002;29;20245;-84
2023/03/17 07:20:28;;;;;;;1.93;1.57;;;;;;;6.24;52.96;97438.56;4897156;29;20687;-81
2023/03/17 07:22:55;;;;;;;2.10;1.60;;;;;;;6.37;51.33;97411.66;4902080;29;20210;-73
2023/03/17 07:25:23;;;;;;;4.50;2.47;;;;;;;6.68;50.62;97432.38;4897487;29;20239;-80
2023/03/17 07:27:50;;;;;;;2.03;1.50;;;;;;;6.85;50.19;97413.06;4895491;29;20664;-83
2023/03/17 07:30:18;;;;;;;10.07;4.73;;;;;;;6.98;49.41;97436.75;4895963;29;20209;-75
2023/03/17 07:32:46;;;;;;;2.27;1.50;;;;;;;6.85;49.86;97443.94;4863482;29;20210;-80
2023/03/17 07:35:14;;;;;;;3.90;2.07;;;;;;;6.92;50.25;97440.34;4898630;29;20262;-83
2023/03/17 07:37:41;;;;;;;3.93;1.60;;;;;;;7.06;50.39;97421.97;4904721;29;20229;-84
2023/03/17 07:40:09;;;;;;;2.53;2.10;;;;;;;7.10;49.58;97439.03;4910419;29;20655;-86
2023/03/17 07:42:36;;;;;;;2.33;1.50;;;;;;;7.05;48.51;97446.84;4897370;29;20195;-86
2023/03/17 07:45:04;;;;;;;2.10;1.60;;;;;;;6.95;49.52;97426.53;4898031;29;20213;-76
2023/03/17 07:47:31;;;;;;;4.60;2.10;;;;;;;6.91;50.00;97448.09;4886901;29;20206;-85
2023/03/17 07:50:39;;;;;;;3.30;1.40;;;;;;;6.88;49.57;97435.31;4894990;29;20261;-80
2023/03/17 07:54:02;;;;;;;3.40;2.07;;;;;;;6.83;49.18;97450.00;4894462;29;20223;-85
2023/03/17 07:57:23;;;;;;;2.50;1.50;;;;;;;6.81;49.64;97438.91;4895880;29;20221;-80
2023/03/17 08:00:09;;;;;;;2.20;1.20;;;;;;;6.79;49.60;97427.81;4880992;29;20586;-82
2023/03/17 08:02:39;;;;;;;2.60;1.30;;;;;;;6.86;48.84;97466.22;4894243;29;20861;-85
2023/03/17 08:05:07;;;;;;;2.30;1.87;;;;;;;6.95;49.87;97445.41;4901587;29;20562;-82
2023/03/17 08:07:38;;;;;;;2.63;2.00;;;;;;;7.04;49.26;97439.19;4900560;29;20207;-81
2023/03/17 08:10:06;;;;;;;2.33;1.80;;;;;;;7.22;49.28;97451.56;4901464;29;20232;-75
2023/03/17 08:12:34;;;;;;;2.90;1.80;;;;;;;7.35;49.54;97440.06;4899589;29;20743;-76
2023/03/17 08:15:01;;;;;;;2.03;1.80;;;;;;;7.09;50.16;97406.44;4898444;29;20199;-81
2023/03/17 08:17:28;;;;;;;3.57;1.90;;;;;;;7.20;49.47;97466.22;4898499;29;20317;-81
2023/03/17 08:19:56;;;;;;;3.27;2.30;;;;;;;7.36;50.36;97437.44;4898122;29;20254;-81
2023/03/17 08:22:23;;;;;;;3.93;2.47;;;;;;;7.13;52.76;97455.22;4898695;29;20188;-83
2023/03/17 08:24:50;;;;;;;3.50;2.30;;;;;;;6.82;53.08;97449.16;4896717;29;20194;-77
2023/03/17 08:27:19;;;;;;;2.93;2.57;;;;;;;6.93;53.11;97446.31;4893766;29;20198;-79
2023/03/17 08:29:47;;;;;;;3.83;2.80;;;;;;;6.76;54.41;97458.78;4894324;29;20220;-77
2023/03/17 08:32:14;;;;;;;3.07;1.63;;;;;;;6.65;54.33;97497.63;4896625;29;20621;-79
2023/03/17 08:34:43;;;;;;;2.90;2.30;;;;;;;6.72;55.27;97470.03;4893523;29;20206;-80
2023/03/17 08:37:10;;;;;;;4.37;2.83;;;;;;;6.91;55.17;97473.84;4894940;29;20308;-76
2023/03/17 08:39:37;;;;;;;4.70;2.93;;;;;;;6.70;55.39;97500.09;4896086;29;20199;-82
2023/03/17 08:42:04;;;;;;;4.17;3.13;;;;;;;6.62;56.25;97479.66;4897479;29;20213;-83
2023/03/17 08:44:33;;;;;;;4.70;2.40;;;;;;;6.65;56.79;97496.78;4898187;29;20851;-76
2023/03/17 08:47:00;;;;;;;4.50;2.83;;;;;;;6.38;56.65;97499.09;4897148;29;20252;-77
2023/03/17 08:49:27;;;;;;;3.90;3.13;;;;;;;6.42;56.88;97494.72;4897296;29;20205;-77
2023/03/17 08:51:54;;;;;;;5.13;2.90;;;;;;;6.75;56.24;97480.22;4895279;29;20204;-74
2023/03/17 08:54:21;;;;;;;4.73;3.47;;;;;;;6.56;56.10;97451.50;4894925;29;20210;-77
2023/03/17 08:56:48;;;;;;;3.27;2.80;;;;;;;6.58;56.54;97491.78;4898997;29;20229;-81
2023/03/17 08:59:15;;;;;;;3.50;2.30;;;;;;;6.31;55.93;97501.81;4895141;29;20649;-78
2023/03/17 09:01:44;;;;;;;4.73;3.40;;;;;;;6.74;55.85;97489.69;4895499;29;20233;-81
2023/03/17 09:04:11;;;;;;;4.87;3.27;;;;;;;6.67;56.49;97484.72;4903366;29;20266;-83
2023/03/17 09:06:38;;;;;;;6.97;3.47;;;;;;;6.85;56.22;97468.84;4902241;29;20257;-79
2023/03/17 09:09:15;;;;;;;6.17;4.07;;;;;;;7.26;55.78;97474.66;4897237;29;20297;-80
2023/03/17 09:11:42;;;;;;;4.63;3.37;;;;;;;7.25;55.45;97495.31;4899676;29;20725;-82
2023/03/17 09:14:10;;;;;;;4.83;3.40;;;;;;;7.05;56.29;97487.19;4895967;29;20274;-79
2023/03/17 09:16:37;;;;;;;5.20;3.60;;;;;;;6.59;57.69;97478.00;4896166;29;20289;-81
2023/03/17 09:19:04;;;;;;;4.13;3.30;;;;;;;6.32;58.03;97509.53;4898939;29;20206;-79
2023/03/17 09:21:31;;;;;;;5.33;3.10;;;;;;;6.23;58.63;97499.41;4895310;29;20219;-81
2023/03/17 09:23:58;;;;;;;6.93;4.50;;;;;;;6.25;58.96;97489.94;4895319;29;20221;-75
2023/03/17 09:26:28;;;;;;;6.37;3.23;;;;;;;6.42;57.46;97494.72;4895751;29;20198;-76
2023/03/17 09:28:55;;;;;;;5.40;3.70;;;;;;;6.52;57.19;97502.22;4899036;29;20209;-72
2023/03/17 09:31:22;;;;;;;5.03;3.63;;;;;;;6.59;56.90;97498.59;4894692;29;20246;-77
2023/03/17 09:33:51;;;;;;;5.17;3.40;;;;;;;6.39;57.61;97495.63;4896396;29;20203;-75
2023/03/17 09:36:19;;;;;;;4.60;3.00;;;;;;;6.32;58.33;97508.66;4895685;29;20227;-74
2023/03/17 09:38:46;;;;;;;4.83;3.70;;;;;;;6.68;58.02;97497.53;4893951;29;20206;-80
2023/03/17 09:41:18;;;;;;;10.27;5.17;;;;;;;6.53;58.47;97532.19;4894564;29;20199;-79
2023/03/17 09:44:14;;;;;;;4.80;2.93;;;;;;;6.59;58.85;97510.63;4899259;29;20254;-77
2023/03/17 09:47:17;;;;;;;6.27;4.13;;;;;;;7.19;57.84;97513.50;4898908;29;20582;-77
2023/03/17 09:49:48;;;;;;;4.33;3.27;;;;;;;6.88;58.05;97504.81;4894115;29;20202;-75
2023/03/17 09:52:17;;;;;;;4.57;3.87;;;;;;;6.67;58.71;97449.53;4893562;29;20274;-73
2023/03/17 09:54:48;;;;;;;5.17;3.00;;;;;;;6.92;59.49;97516.72;4895346;29;20752;-78
2023/03/17 09:57:20;;;;;;;5.63;4.30;;;;;;;7.09;58.49;97489.66;4894271;29;20669;-73
2023/03/17 10:00:00;;;;;;;5.57;3.70;;;;;;;7.09;56.77;97488.84;4894172;29;20198;-78
2023/03/17 10:02:32;;;;;;;5.17;3.47;;;;;;;7.15;56.31;97493.84;4897437;29;20211;-82
2023/03/17 10:05:16;;;;;;;3.70;3.20;;;;;;;7.35;54.74;97492.44;4895873;29;20221;-76
2023/03/17 10:07:56;;;;;;;3.73;2.90;;;;;;;6.83;56.97;97470.59;4894337;29;20202;-75
2023/03/17 10:10:25;;;;;;;5.40;3.70;;;;;;;7.08;57.26;97488.00;4894721;29;20281;-83
2023/03/17 10:12:52;;;;;;;6.20;3.80;;;;;;;6.51;59.27;97485.06;4890826;29;20832;-75
2023/03/17 10:15:31;;;;;;;7.00;4.67;;;;;;;7.25;57.06;97487.56;4891945;29;20627;-85
2023/03/17 10:17:59;;;;;;;5.33;4.27;;;;;;;7.22;56.85;97479.91;4895024;29;20225;-77
2023/03/17 10:20:29;;;;;;;6.20;4.87;;;;;;;7.37;56.42;97489.81;4893714;29;20258;-83
2023/03/17 10:23:00;;;;;;;4.50;3.20;;;;;;;7.29;57.38;97481.47;4894037;29;20275;-81
2023/03/17 10:25:30;;;;;;;6.67;4.47;;;;;;;7.63;57.67;97465.94;4897400;29;20686;-79
2023/03/17 10:28:20;;;;;;;5.07;3.93;;;;;;;8.01;57.46;97471.72;4896195;29;20194;-81
2023/03/17 10:30:47;;;;;;;4.33;3.83;;;;;;;8.12;56.40;97468.81;4896845;29;20582;-79
2023/03/17 10:33:14;;;;;;;5.67;4.13;;;;;;;8.51;54.80;97466.81;4895582;29;20211;-79
2023/03/17 10:35:43;;;;;;;5.43;3.50;;;;;;;8.70;54.03;97465.34;4892163;29;20786;-78
2023/03/17 10:38:21;;;;;;;4.03;2.90;;;;;;;8.11;52.80;97480.88;4893218;29;20219;-80
2023/03/17 10:41:01;;;;;;;4.73;2.90;;;;;;;8.01;53.72;97455.41;4895625;29;20191;-83
2023/03/17 10:43:34;;;;;;;3.07;2.50;;;;;;;8.16;52.52;97467.84;4894211;29;20688;-78
2023/03/17 10:46:14;;;;;;;3.80;3.13;;;;;;;8.69;51.60;97455.91;4896434;29;20267;-76
2023/03/17 10:48:51;;;;;;;5.53;3.43;;;;;;;9.23;50.27;97448.09;4894143;29;20194;-80
2023/03/17 10:51:39;;;;;;;3.87;2.60;;;;;;;9.08;49.97;97452.03;4899206;29;20203;-77
2023/03/17 10:54:09;;;;;;;4.53;3.40;;;;;;;8.99;51.37;97442.00;4893869;29;20199;-81
2023/03/17 10:56:40;;;;;;;3.60;2.93;;;;;;;8.35;52.55;97474.16;4894482;29;20582;-82
2023/03/17 10:59:18;;;;;;;4.97;3.73;;;;;;;8.16;54.28;97468.69;4897840;29;20215;-84
2023/03/17 11:01:51;;;;;;;5.83;3.47;;;;;;;8.61;53.26;97451.00;4892798;29;20203;-78
2023/03/17 11:04:42;;;;;;;5.97;3.43;;;;;;;8.34;53.36;97407.13;4892155;29;20187;-78
2023/03/17 11:07:26;;;;;;;4.37;3.40;;;;;;;8.42;54.44;97447.31;4894499;29;20199;-82
2023/03/17 11:09:57;;;;;;;4.57;3.47;;;;;;;8.51;53.34;97428.13;4899879;29;20202;-75
2023/03/17 11:12:34;;;;;;;5.83;3.70;;;;;;;8.78;53.79;97443.56;4904449;29;20770;-85
2023/03/17 11:15:05;;;;;;;4.43;3.40;;;;;;;8.84;53.23;97447.69;4896402;29;20203;-80
2023/03/17 11:17:48;;;;;;;4.23;3.07;;;;;;;8.93;53.88;97447.38;4892375;29;20238;-81
2023/03/17 11:20:19;;;;;;;3.93;3.23;;;;;;;8.49;53.73;97456.53;4890462;29;20210;-78
2023/03/17 11:23:12;;;;;;;5.90;3.50;;;;;;;8.18;53.82;97468.66;4891735;29;20267;-86
2023/03/17 11:25:43;;;;;;;6.90;3.87;;;;;;;8.14;54.61;97460.13;4895265;29;20216;-74
2023/03/17 11:28:20;;;;;;;5.27;3.07;;;;;;;7.92;55.97;97456.50;4876996;29;20184;-81
2023/03/17 11:30:56;;;;;;;4.67;3.40;;;;;;;7.98;56.96;97456.31;4891714;29;20195;-77
2023/03/17 11:33:35;;;;;;;2.93;2.53;;;;;;;7.46;56.39;97456.06;4894325;29;20198;-78
2023/03/17 11:36:22;;;;;;;3.30;2.43;;;;;;;7.64;55.81;97450.44;4897594;29;20199;-85
2023/03/17 11:39:16;;;;;;;4.20;3.23;;;;;;;7.65;55.91;97474.47;4895812;29;20285;-81
2023/03/17 11:41:55;;;;;;;5.07;3.10;;;;;;;7.52;55.28;97448.22;4885189;29;20195;-79
2023/03/17 11:44:48;;;;;;;4.53;3.20;;;;;;;7.69;54.57;97456.31;4893388;29;20192;-81
2023/03/17 11:47:21;;;;;;;3.63;2.60;;;;;;;7.73;53.01;97445.00;4895195;29;20683;-79
2023/03/17 11:50:00;;;;;;;3.13;2.50;;;;;;;7.56;53.65;97436.06;4910891;29;20204;-76
2023/03/17 11:52:35;;;;;;;2.93;2.63;;;;;;;7.97;52.67;97451.22;4898237;29;20282;-75
2023/03/17 11:55:11;;;;;;;3.17;1.90;;;;;;;7.57;52.87;97451.50;4894099;29;20294;-76